Time;durP1;ratioP1;P1;durP2;ratioP2;P2;SDS_P1;SDS_P2;PMS_P1;PMS_P2;Temp;Humidity;BMP_temperature;BMP_pressure;BME280_temperature;BME280_humidity;BME280_pressure;Samples;Min_cycle;Max_cycle;Signal;HPM_P1;HPM_P2
2021/07/25 00:00:20;;;;;;;6.78;3.30;;;;;;;19.31;80.81;99162.22;2202033;40;20326;-81
2021/07/25 00:01:51;;;;;;;5.95;3.00;;;;;;;19.33;81.24;99164.69;2200873;40;20042;-82
2021/07/25 00:03:24;;;;;;;6.38;3.72;;;;;;;19.35;80.96;99172.59;2203058;40;20047;-81
2021/07/25 00:04:55;;;;;;;7.38;3.92;;;;;;;19.33;80.88;99176.34;2206018;40;20430;-81
2021/07/25 00:06:27;;;;;;;6.15;3.53;;;;;;;19.33;81.01;99180.94;2203749;40;20034;-81
2021/07/25 00:07:59;;;;;;;6.85;3.70;;;;;;;19.35;81.17;99186.97;2193850;40;20051;-82
2021/07/25 00:09:31;;;;;;;6.40;3.47;;;;;;;19.36;81.18;99188.66;2199675;40;20035;-80
2021/07/25 00:11:03;;;;;;;5.53;3.10;;;;;;;19.33;80.89;99186.38;2205765;40;20422;-81
2021/07/25 00:12:34;;;;;;;7.50;3.63;;;;;;;19.33;81.06;99194.50;2202435;40;20045;-81
2021/07/25 00:14:06;;;;;;;6.70;3.30;;;;;;;19.29;80.89;99193.28;2204908;40;20054;-81
2021/07/25 00:15:38;;;;;;;5.45;2.78;;;;;;;19.28;81.03;99197.88;2202859;40;20319;-82
2021/07/25 00:17:10;;;;;;;6.93;2.70;;;;;;;19.29;81.11;99195.97;2200517;40;20028;-80
2021/07/25 00:18:42;;;;;;;8.48;4.10;;;;;;;19.27;81.24;99200.81;2202478;40;20371;-81
2021/07/25 00:20:15;;;;;;;5.85;3.75;;;;;;;19.20;80.96;99208.16;2202931;40;20023;-81
2021/07/25 00:21:46;;;;;;;7.85;3.60;;;;;;;19.10;81.52;99204.06;2205789;40;20058;-81
2021/07/25 00:23:19;;;;;;;10.45;3.80;;;;;;;19.06;81.54;99207.44;2200374;40;20303;-81
2021/07/25 00:25:01;;;;;;;6.25;3.53;;;;;;;19.01;81.59;99216.22;2206216;40;20062;-82
2021/07/25 00:26:37;;;;;;;6.28;3.53;;;;;;;18.95;81.74;99211.69;2203641;40;20295;-82
2021/07/25 00:28:14;;;;;;;6.97;3.97;;;;;;;18.93;82.21;99213.78;2199490;40;20065;-81
2021/07/25 00:29:45;;;;;;;8.43;3.35;;;;;;;18.91;82.09;99219.41;2200061;40;20050;-80
2021/07/25 00:31:17;;;;;;;8.27;3.90;;;;;;;18.90;82.19;99220.44;2200430;40;20042;-81
2021/07/25 00:32:49;;;;;;;7.70;3.50;;;;;;;18.91;82.45;99232.94;2200026;40;20058;-82
2021/07/25 00:34:22;;;;;;;7.47;3.90;;;;;;;18.94;82.45;99227.09;2205021;40;20031;-81
2021/07/25 00:35:55;;;;;;;10.23;3.55;;;;;;;18.94;82.54;99218.97;2204932;40;20049;-83
2021/07/25 00:37:27;;;;;;;6.25;3.33;;;;;;;18.98;82.22;99206.66;2202428;40;20414;-81
2021/07/25 00:38:59;;;;;;;5.32;3.47;;;;;;;19.06;81.97;99191.19;2200473;40;20039;-81
2021/07/25 00:40:36;;;;;;;8.25;3.10;;;;;;;19.13;nan;99187.38;2204075;40;20366;-82
2021/07/25 00:42:08;;;;;;;7.88;3.58;;;;;;;19.20;81.68;99197.31;2195132;40;20099;-81
2021/07/25 00:43:40;;;;;;;5.90;3.03;;;;;;;19.21;81.86;99197.13;2202546;40;20050;-82
2021/07/25 00:45:12;;;;;;;7.00;3.58;;;;;;;19.29;81.36;99202.25;2199732;40;20047;-81
2021/07/25 00:46:45;;;;;;;5.20;2.90;;;;;;;19.33;81.09;99189.06;2201225;40;20046;-81
2021/07/25 00:48:17;;;;;;;6.00;3.10;;;;;;;19.37;81.24;99198.41;2200255;40;20319;-81
2021/07/25 00:49:50;;;;;;;6.85;3.00;;;;;;;19.39;80.99;99190.88;2200238;40;20054;-81
2021/07/25 00:51:23;;;;;;;8.45;3.25;;;;;;;19.39;80.90;99190.88;2199730;40;20054;-82
2021/07/25 00:52:56;;;;;;;5.70;3.10;;;;;;;19.43;81.19;99194.81;2200055;40;20360;-80
2021/07/25 00:54:28;;;;;;;7.10;3.35;;;;;;;19.44;80.76;99188.34;2200916;40;20324;-81
2021/07/25 00:55:59;;;;;;;6.35;3.60;;;;;;;19.43;80.84;99178.56;2202024;40;20054;-81
2021/07/25 00:57:32;;;;;;;6.85;3.50;;;;;;;19.39;81.04;99180.03;2206908;40;20478;-85
2021/07/25 00:59:05;;;;;;;7.05;4.07;;;;;;;19.39;80.81;99179.22;2208206;40;20039;-82
2021/07/25 01:00:37;;;;;;;7.22;3.10;;;;;;;19.40;80.79;99187.13;2205264;40;20038;-85
2021/07/25 01:02:08;;;;;;;5.82;3.00;;;;;;;19.41;80.76;99183.38;2203251;40;20042;-83
2021/07/25 01:03:52;;;;;;;6.13;3.40;;;;;;;19.40;80.95;99179.00;2206484;40;20027;-84
2021/07/25 01:05:38;;;;;;;8.48;3.95;;;;;;;19.39;80.80;99180.03;2202756;40;20039;-82
2021/07/25 01:07:19;;;;;;;6.55;2.80;;;;;;;19.41;80.80;99177.94;2201517;40;20026;-81
2021/07/25 01:08:58;;;;;;;5.00;3.13;;;;;;;19.41;80.93;99171.72;2201463;40;20047;-82
2021/07/25 01:10:31;;;;;;;6.60;3.40;;;;;;;19.44;80.76;99172.09;2207077;40;20030;-83
2021/07/25 01:12:06;;;;;;;6.30;2.97;;;;;;;19.46;80.83;99169.97;2207897;40;20042;-85
2021/07/25 01:13:41;;;;;;;6.47;3.65;;;;;;;19.47;80.89;99168.91;2206132;40;20038;-83
2021/07/25 01:15:20;;;;;;;9.57;4.30;;;;;;;19.45;80.53;99160.19;2202091;40;20027;-83
2021/07/25 01:16:51;;;;;;;8.25;3.80;;;;;;;19.48;80.67;99165.16;2204515;40;20030;-81
2021/07/25 01:18:23;;;;;;;5.53;3.35;;;;;;;19.49;80.93;99158.69;2199688;40;20027;-82
2021/07/25 01:19:55;;;;;;;6.43;3.53;;;;;;;19.52;80.83;99162.00;2200153;40;20041;-81
2021/07/25 01:21:27;;;;;;;6.95;4.22;;;;;;;19.52;80.52;99151.97;2204660;40;20058;-81
2021/07/25 01:23:00;;;;;;;10.25;4.40;;;;;;;19.49;80.65;99155.97;2204077;40;20031;-82
2021/07/25 01:24:31;;;;;;;7.05;3.40;;;;;;;19.44;80.79;99155.81;2202601;40;20039;-83
2021/07/25 01:26:03;;;;;;;5.78;3.10;;;;;;;19.43;81.18;99162.31;2200094;40;20035;-81
2021/07/25 01:27:39;;;;;;;7.88;3.88;;;;;;;19.43;81.12;99170.44;2201972;40;20038;-81
2021/07/25 01:29:12;;;;;;;7.40;3.85;;;;;;;19.43;80.85;99169.59;2199924;40;20135;-81
2021/07/25 01:30:53;;;;;;;6.07;3.83;;;;;;;19.41;80.81;99161.69;2202095;40;20050;-81
2021/07/25 01:32:25;;;;;;;6.32;3.78;;;;;;;19.42;80.84;99155.22;2204436;40;20043;-81
2021/07/25 01:34:01;;;;;;;7.50;3.63;;;;;;;19.41;81.05;99134.59;2203647;40;20033;-81
2021/07/25 01:35:35;;;;;;;7.97;3.80;;;;;;;19.39;81.02;99127.75;2206953;40;20043;-81
2021/07/25 01:37:07;;;;;;;8.95;4.03;;;;;;;19.38;81.02;99129.59;2203781;40;20233;-81
2021/07/25 01:38:39;;;;;;;7.80;4.60;;;;;;;19.34;81.09;99123.00;2201700;40;20050;-81
2021/07/25 01:40:16;;;;;;;7.65;3.97;;;;;;;19.33;81.30;99126.75;2201993;40;20030;-81
2021/07/25 01:41:48;;;;;;;6.47;3.65;;;;;;;19.34;81.36;99120.28;2199585;40;20035;-81
2021/07/25 01:43:19;;;;;;;6.80;3.45;;;;;;;19.35;81.51;99123.81;2200900;40;20037;-82
2021/07/25 01:44:51;;;;;;;7.75;4.20;;;;;;;19.41;81.50;99131.88;2200947;40;20039;-81
2021/07/25 01:46:23;;;;;;;6.70;3.45;;;;;;;19.45;81.52;99138.53;2199854;40;20053;-80
2021/07/25 01:48:06;;;;;;;8.60;4.10;;;;;;;19.48;81.38;99139.94;2204670;40;20027;-82
2021/07/25 01:49:37;;;;;;;8.07;4.45;;;;;;;19.47;81.37;99144.50;2205600;40;20531;-82
2021/07/25 01:51:12;;;;;;;7.10;4.00;;;;;;;19.50;81.21;99156.81;2203691;40;20034;-82
2021/07/25 01:52:45;;;;;;;6.07;3.85;;;;;;;19.52;81.50;99154.69;2206682;40;20042;-82
2021/07/25 01:54:17;;;;;;;7.88;3.67;;;;;;;19.59;81.17;99162.75;2202961;40;20042;-82
2021/07/25 01:55:48;;;;;;;7.50;4.20;;;;;;;19.61;81.28;99166.06;2205433;40;20030;-82
2021/07/25 01:57:19;;;;;;;6.85;3.97;;;;;;;19.62;81.43;99168.53;2204080;40;20046;-82
2021/07/25 01:58:51;;;;;;;5.50;4.00;;;;;;;19.67;81.49;99175.19;2203483;40;20050;-81
2021/07/25 02:00:23;;;;;;;7.07;3.95;;;;;;;19.69;81.19;99179.31;2202959;40;20049;-81
2021/07/25 02:01:55;;;;;;;7.32;4.45;;;;;;;19.70;81.42;99180.13;2207557;40;20042;-82
2021/07/25 02:03:28;;;;;;;6.45;4.32;;;;;;;19.68;81.33;99166.00;2206457;40;20031;-81
2021/07/25 02:05:00;;;;;;;7.05;4.03;;;;;;;19.68;81.36;99164.09;2207214;40;20033;-84
2021/07/25 02:06:35;;;;;;;7.70;4.93;;;;;;;19.67;81.52;99170.56;2206998;40;20053;-81
2021/07/25 02:08:07;;;;;;;5.78;4.05;;;;;;;19.61;81.78;99168.78;2205717;40;20117;-83
2021/07/25 02:09:38;;;;;;;10.30;4.93;;;;;;;19.59;81.83;99169.00;2201400;40;20050;-83
2021/07/25 02:11:10;;;;;;;8.55;5.18;;;;;;;19.58;82.11;99169.22;2207472;40;20049;-82
2021/07/25 02:12:42;;;;;;;9.70;5.93;;;;;;;19.56;82.11;99169.47;2196755;40;20636;-84
2021/07/25 02:14:14;;;;;;;7.35;4.78;;;;;;;19.53;82.27;99174.50;2207000;40;20039;-84
2021/07/25 02:15:46;;;;;;;9.30;4.70;;;;;;;19.50;82.65;99164.94;2209248;40;20381;-84
2021/07/25 02:17:17;;;;;;;8.25;4.82;;;;;;;19.49;82.45;99164.09;2205893;40;20010;-84
2021/07/25 02:18:49;;;;;;;14.55;4.90;;;;;;;19.49;82.55;99168.72;2197335;40;20057;-83
2021/07/25 02:20:21;;;;;;;7.30;4.40;;;;;;;19.51;82.48;99168.47;2201662;40;20187;-83
2021/07/25 02:21:54;;;;;;;6.10;3.80;;;;;;;19.52;82.59;99167.41;2204412;40;20050;-83
2021/07/25 02:23:26;;;;;;;8.65;4.22;;;;;;;19.54;82.35;99170.75;2203935;40;20057;-84
2021/07/25 02:24:58;;;;;;;7.50;4.38;;;;;;;19.55;82.32;99175.13;2204851;40;20354;-83
2021/07/25 02:26:28;;;;;;;6.97;3.45;;;;;;;19.60;82.53;99186.09;2202913;40;20486;-84
2021/07/25 02:28:00;;;;;;;7.15;3.88;;;;;;;19.60;82.26;99183.38;2209033;40;20038;-83
2021/07/25 02:29:32;;;;;;;7.32;4.05;;;;;;;19.60;82.32;99180.66;2196992;40;20070;-83
2021/07/25 02:31:04;;;;;;;7.28;3.72;;;;;;;19.60;81.89;99178.78;2207899;40;20346;-83
2021/07/25 02:32:35;;;;;;;9.55;4.38;;;;;;;19.63;81.75;99191.88;2208976;40;20038;-84
2021/07/25 02:34:07;;;;;;;6.75;3.60;;;;;;;19.65;81.72;99183.53;2205341;40;20058;-84
2021/07/25 02:35:38;;;;;;;9.05;3.80;;;;;;;19.68;81.58;99174.94;2197668;40;20031;-84
2021/07/25 02:37:14;;;;;;;5.68;3.28;;;;;;;19.69;81.75;99173.09;2201749;40;20057;-82
2021/07/25 02:38:45;;;;;;;7.22;4.18;;;;;;;19.70;81.60;99185.56;2206965;40;20022;-84
2021/07/25 02:40:17;;;;;;;6.68;4.40;;;;;;;19.68;81.59;99184.97;2207907;40;20045;-83
2021/07/25 02:41:48;;;;;;;7.00;3.90;;;;;;;19.66;81.95;99184.38;2206919;40;20031;-83
2021/07/25 02:43:20;;;;;;;10.80;4.45;;;;;;;19.67;81.49;99184.13;2208445;40;20051;-82
2021/07/25 02:44:52;;;;;;;7.35;3.95;;;;;;;19.64;81.72;99182.72;2207497;40;20372;-83
2021/07/25 02:46:23;;;;;;;5.85;3.90;;;;;;;19.66;81.68;99181.66;2203596;40;20031;-83
2021/07/25 02:47:54;;;;;;;8.23;5.43;;;;;;;19.65;81.32;99186.22;2205487;40;20030;-84
2021/07/25 02:49:25;;;;;;;9.27;5.10;;;;;;;19.58;81.67;99182.78;2209210;40;20045;-84
2021/07/25 02:50:58;;;;;;;7.82;4.85;;;;;;;19.53;81.81;99194.28;2208472;40;20567;-82
2021/07/25 02:52:31;;;;;;;8.55;5.03;;;;;;;19.51;81.91;99196.38;2196194;40;20035;-82
2021/07/25 02:54:03;;;;;;;8.77;4.43;;;;;;;19.52;82.11;99199.94;2200004;40;20034;-84
2021/07/25 02:55:34;;;;;;;7.03;4.10;;;;;;;19.58;81.82;99207.16;2206352;40;20370;-83
2021/07/25 02:57:06;;;;;;;8.52;4.78;;;;;;;19.63;81.39;99193.78;2206150;40;20061;-83
2021/07/25 02:58:38;;;;;;;7.57;4.40;;;;;;;19.64;81.44;99195.44;2207966;40;20398;-84
2021/07/25 03:00:10;;;;;;;7.45;4.07;;;;;;;19.63;81.52;99207.34;2208237;40;20034;-83
2021/07/25 03:01:41;;;;;;;6.35;4.00;;;;;;;19.65;81.23;99210.63;2208102;40;20030;-84
2021/07/25 03:03:12;;;;;;;8.07;4.78;;;;;;;19.65;81.39;99207.91;2207776;40;20381;-87
2021/07/25 03:04:46;;;;;;;7.35;4.65;;;;;;;19.66;81.58;99209.59;2208160;40;20034;-84
2021/07/25 03:06:18;;;;;;;7.85;4.93;;;;;;;19.65;81.64;99210.63;2207922;40;20053;-83
2021/07/25 03:07:51;;;;;;;6.60;4.25;;;;;;;19.68;81.42;99196.63;2208114;40;20034;-83
2021/07/25 03:09:22;;;;;;;11.93;5.28;;;;;;;19.69;81.71;99195.59;2207940;40;20380;-83
2021/07/25 03:10:54;;;;;;;11.27;5.53;;;;;;;19.64;81.63;99198.16;2207703;40;20099;-83
2021/07/25 03:12:25;;;;;;;8.68;5.13;;;;;;;19.61;81.70;99198.59;2207866;40;20035;-83
2021/07/25 03:13:57;;;;;;;12.43;6.93;;;;;;;19.56;81.87;99184.88;2207758;40;20077;-85
2021/07/25 03:15:29;;;;;;;12.23;5.43;;;;;;;19.52;81.88;99195.34;2207547;40;20035;-85
2021/07/25 03:17:01;;;;;;;8.00;4.65;;;;;;;19.53;82.11;99199.72;2207496;40;20038;-85
2021/07/25 03:18:33;;;;;;;7.60;4.25;;;;;;;19.56;81.86;99206.56;2207828;40;20031;-83
2021/07/25 03:20:06;;;;;;;6.55;4.18;;;;;;;19.64;81.54;99206.28;2196157;40;20047;-85
2021/07/25 03:21:38;;;;;;;6.35;4.22;;;;;;;19.70;81.51;99208.09;2195899;40;20059;-84
2021/07/25 03:23:10;;;;;;;7.93;5.13;;;;;;;19.74;81.60;99203.84;2195815;40;20408;-83
2021/07/25 03:24:42;;;;;;;9.95;4.40;;;;;;;19.75;81.67;99200.09;2195749;40;20059;-82
2021/07/25 03:26:13;;;;;;;8.75;4.72;;;;;;;19.77;81.36;99203.41;2195972;40;20431;-85
2021/07/25 03:27:44;;;;;;;8.50;4.72;;;;;;;19.77;81.42;99202.59;2196016;40;20051;-85
2021/07/25 03:29:15;;;;;;;7.40;4.97;;;;;;;19.76;81.40;99209.88;2195959;40;20043;-83
2021/07/25 03:30:47;;;;;;;7.68;4.10;;;;;;;19.73;81.73;99204.94;2195553;40;20058;-85
2021/07/25 03:32:18;;;;;;;7.72;4.50;;;;;;;19.80;81.62;99204.84;2195584;40;20043;-84
2021/07/25 03:33:50;;;;;;;8.55;4.88;;;;;;;19.79;81.44;99201.31;2195775;40;20047;-83
2021/07/25 03:35:22;;;;;;;7.75;4.95;;;;;;;19.80;81.78;99194.84;2195258;40;20043;-83
2021/07/25 03:36:53;;;;;;;7.88;4.40;;;;;;;19.82;81.83;99202.75;2195442;40;20039;-84
2021/07/25 03:38:26;;;;;;;6.22;3.88;;;;;;;19.87;81.54;99202.94;2195487;40;20044;-85
2021/07/25 03:39:58;;;;;;;7.57;5.07;;;;;;;19.89;81.35;99200.81;2195306;40;20491;-85
2021/07/25 03:41:30;;;;;;;11.15;4.97;;;;;;;19.87;81.72;99207.50;2195288;40;20044;-83
2021/07/25 03:43:02;;;;;;;7.57;4.35;;;;;;;19.85;81.45;99204.16;2195163;40;20043;-83
2021/07/25 03:44:34;;;;;;;9.07;4.53;;;;;;;19.88;81.60;99209.19;2194413;40;20383;-83
2021/07/25 03:46:06;;;;;;;8.25;4.70;;;;;;;19.89;81.24;99211.66;2194037;40;20035;-86
2021/07/25 03:47:40;;;;;;;9.98;6.15;;;;;;;19.85;81.36;99201.44;2194244;40;20181;-84
2021/07/25 03:49:11;;;;;;;9.25;5.18;;;;;;;19.77;81.77;99214.25;2193771;40;20035;-84
2021/07/25 03:50:43;;;;;;;9.48;5.03;;;;;;;19.72;81.85;99199.72;2206136;40;20322;-82
2021/07/25 03:52:14;;;;;;;7.40;4.85;;;;;;;19.72;82.33;99203.28;2206293;40;20031;-82
2021/07/25 03:53:47;;;;;;;8.68;5.70;;;;;;;19.76;82.19;99201.75;2207793;40;20051;-85
2021/07/25 03:55:18;;;;;;;6.90;4.88;;;;;;;19.77;82.29;99202.59;2207971;40;20042;-86
2021/07/25 03:56:50;;;;;;;9.85;5.60;;;;;;;19.78;82.33;99196.94;2208590;40;20034;-86
2021/07/25 03:58:22;;;;;;;11.00;5.35;;;;;;;19.79;82.33;99198.59;2209151;40;20206;-85
2021/07/25 03:59:53;;;;;;;9.38;6.30;;;;;;;19.78;82.49;99188.81;2208767;40;20030;-83
2021/07/25 04:01:25;;;;;;;9.88;6.65;;;;;;;19.73;82.41;99185.97;2208274;40;20509;-84
2021/07/25 04:02:56;;;;;;;9.25;5.40;;;;;;;19.71;82.62;99192.63;2207822;40;20039;-86
2021/07/25 04:04:28;;;;;;;6.68;4.43;;;;;;;19.70;82.69;99202.66;2209571;40;20034;-85
2021/07/25 04:05:59;;;;;;;6.22;4.43;;;;;;;19.71;82.77;99208.91;2209540;40;20062;-86
2021/07/25 04:07:31;;;;;;;11.10;4.95;;;;;;;19.74;82.45;99203.03;2209772;40;20030;-87
2021/07/25 04:09:04;;;;;;;8.07;5.47;;;;;;;19.78;82.29;99205.06;2209802;40;20031;-86
2021/07/25 04:10:40;;;;;;;12.20;6.63;;;;;;;19.73;82.20;99202.22;2197627;40;20031;-86
2021/07/25 04:12:12;;;;;;;10.82;6.30;;;;;;;19.70;82.40;99197.25;2197317;40;20038;-87
2021/07/25 04:13:44;;;;;;;9.02;5.82;;;;;;;19.69;82.66;99195.59;2196379;40;20027;-83
2021/07/25 04:15:16;;;;;;;8.95;5.60;;;;;;;19.72;82.46;99192.44;2196761;40;20098;-86
2021/07/25 04:16:48;;;;;;;9.23;5.47;;;;;;;19.73;82.79;99195.97;2197263;40;20344;-85
2021/07/25 04:18:20;;;;;;;7.82;4.82;;;;;;;19.80;82.67;99196.72;2196614;40;20034;-85
2021/07/25 04:19:50;;;;;;;13.23;5.63;;;;;;;19.80;82.51;99207.56;2196921;40;20040;-86
2021/07/25 04:21:22;;;;;;;8.57;4.93;;;;;;;19.82;82.51;99207.34;2196959;40;20058;-84
2021/07/25 04:22:53;;;;;;;9.40;5.05;;;;;;;19.83;82.46;99212.53;2197494;40;20043;-87
2021/07/25 04:24:26;;;;;;;7.50;5.18;;;;;;;19.85;82.24;99215.00;2197420;40;20322;-85
2021/07/25 04:25:57;;;;;;;11.52;5.93;;;;;;;19.86;82.13;99205.84;2197598;40;20046;-85
2021/07/25 04:27:30;;;;;;;9.05;5.28;;;;;;;19.84;82.45;99213.38;2197510;40;20167;-86
2021/07/25 04:29:02;;;;;;;9.95;5.55;;;;;;;19.82;82.53;99210.88;2197454;40;20042;-85
2021/07/25 04:30:36;;;;;;;10.98;6.13;;;;;;;19.83;82.27;99203.59;2196979;40;20039;-85
2021/07/25 04:32:09;;;;;;;8.23;4.97;;;;;;;19.80;82.57;99208.41;2196895;40;20039;-86
2021/07/25 04:33:43;;;;;;;9.48;6.55;;;;;;;19.85;82.47;99210.47;2195646;40;20036;-84
2021/07/25 04:35:18;;;;;;;10.75;6.88;;;;;;;19.85;82.47;99212.28;2195801;40;20032;-85
2021/07/25 04:36:50;;;;;;;10.35;6.68;;;;;;;19.83;82.16;99214.44;2195504;40;20035;-86
2021/07/25 04:38:22;;;;;;;8.63;5.13;;;;;;;19.83;82.26;99214.44;2196257;40;20039;-86
2021/07/25 04:39:56;;;;;;;8.60;5.05;;;;;;;19.85;82.28;99215.00;2195779;40;20043;-86
2021/07/25 04:41:32;;;;;;;7.40;4.90;;;;;;;19.88;82.05;99209.19;2195718;40;20383;-84
2021/07/25 04:43:05;;;;;;;7.60;5.88;;;;;;;19.92;81.97;99218.53;2195689;40;20032;-85
2021/07/25 04:44:43;;;;;;;8.23;5.63;;;;;;;19.89;82.02;99227.91;2195213;40;20027;-85
2021/07/25 04:46:18;;;;;;;9.18;6.97;;;;;;;19.84;82.32;99218.81;2195740;40;20044;-83
2021/07/25 04:47:53;;;;;;;9.27;4.97;;;;;;;19.83;82.44;99217.97;2253735;23;20042;-76
2021/07/25 04:49:32;;;;;;;10.60;6.88;;;;;;;19.88;82.14;99217.31;2200066;40;20062;-75
2021/07/25 04:51:06;;;;;;;10.05;5.10;;;;;;;19.91;82.09;99217.69;2195195;40;20437;-75
2021/07/25 04:52:39;;;;;;;8.05;4.30;;;;;;;19.96;82.36;99219.72;2200474;40;20407;-75
2021/07/25 04:54:13;;;;;;;9.85;6.60;;;;;;;19.97;82.15;99209.72;2194364;40;20061;-75
2021/07/25 04:55:47;;;;;;;9.23;5.90;;;;;;;19.97;81.95;99218.66;2198869;40;20065;-75
2021/07/25 04:57:20;;;;;;;9.15;6.65;;;;;;;19.98;81.98;99214.09;2200752;40;20054;-75
2021/07/25 04:58:59;;;;;;;11.30;8.27;;;;;;;20.02;81.51;99212.56;2194158;40;20415;-78
2021/07/25 05:00:31;;;;;;;9.57;6.28;;;;;;;20.03;81.40;99212.31;2196965;40;20511;-77
2021/07/25 05:02:05;;;;;;;9.95;7.28;;;;;;;20.04;81.38;99208.56;2206384;40;20050;-75
2021/07/25 05:03:37;;;;;;;11.07;6.57;;;;;;;20.03;80.90;99206.09;2198295;40;20053;-75
2021/07/25 05:05:10;;;;;;;8.93;6.57;;;;;;;20.02;80.98;99210.69;2200813;40;20330;-77
2021/07/25 05:06:43;;;;;;;10.98;6.10;;;;;;;20.03;80.88;99215.03;2197385;40;20034;-76
2021/07/25 05:08:14;;;;;;;7.15;4.82;;;;;;;20.06;80.95;99211.88;2194688;40;20051;-75
2021/07/25 05:09:46;;;;;;;8.88;5.15;;;;;;;20.10;80.65;99223.09;2195999;40;20067;-78
2021/07/25 05:11:21;;;;;;;6.72;5.05;;;;;;;20.14;80.54;99215.31;2194738;40;20038;-75
2021/07/25 05:12:59;;;;;;;7.53;5.43;;;;;;;20.16;80.18;99210.50;2195826;40;20402;-75
2021/07/25 05:14:36;;;;;;;10.55;5.85;;;;;;;20.17;79.87;99212.16;2195120;40;20286;-74
2021/07/25 05:16:12;;;;;;;9.20;5.75;;;;;;;20.14;79.82;99216.19;2199417;40;20450;-74
2021/07/25 05:17:51;;;;;;;8.98;5.32;;;;;;;20.15;79.54;99222.41;2196021;40;20074;-76
2021/07/25 05:19:28;;;;;;;7.97;4.43;;;;;;;20.19;79.23;99219.00;2194978;40;20035;-75
2021/07/25 05:21:10;;;;;;;9.02;4.63;;;;;;;20.24;79.16;99226.47;2197462;40;20217;-76
2021/07/25 05:22:48;;;;;;;16.98;5.45;;;;;;;20.25;79.06;99220.84;2194849;40;20069;-76
2021/07/25 05:24:22;;;;;;;7.97;4.63;;;;;;;20.26;79.20;99221.66;2197641;40;20376;-78
2021/07/25 05:25:55;;;;;;;8.88;4.88;;;;;;;20.32;79.08;99222.63;2198762;40;20043;-75
2021/07/25 05:27:38;;;;;;;8.77;5.65;;;;;;;20.37;79.06;99229.03;2198974;40;20031;-76
2021/07/25 05:29:12;;;;;;;8.52;4.60;;;;;;;20.36;78.65;99232.78;2194432;40;20058;-76
2021/07/25 05:30:45;;;;;;;7.28;4.78;;;;;;;20.39;78.08;99229.63;2195828;40;20062;-76
2021/07/25 05:32:19;;;;;;;8.18;4.38;;;;;;;20.46;77.81;99226.00;2195687;40;20081;-76
2021/07/25 05:33:50;;;;;;;6.07;4.53;;;;;;;20.52;77.15;99233.19;2202099;40;20049;-76
2021/07/25 05:35:21;;;;;;;8.48;4.13;;;;;;;20.58;76.57;99235.03;2200957;40;20065;-76
2021/07/25 05:36:53;;;;;;;8.25;4.72;;;;;;;20.60;76.32;99232.88;2206157;40;20090;-76
2021/07/25 05:38:25;;;;;;;6.47;4.30;;;;;;;20.62;75.91;99232.66;2198658;40;20057;-75
2021/07/25 05:39:56;;;;;;;6.57;3.78;;;;;;;20.63;76.08;99227.00;2204454;40;20418;-77
2021/07/25 05:41:28;;;;;;;10.77;4.53;;;;;;;20.63;75.98;99237.03;2197831;40;20043;-77
2021/07/25 05:43:00;;;;;;;9.35;4.60;;;;;;;20.64;75.82;99239.50;2194793;40;20058;-77
2021/07/25 05:44:32;;;;;;;9.15;5.32;;;;;;;20.61;75.83;99242.69;2195625;40;20451;-76
2021/07/25 05:46:04;;;;;;;6.60;4.28;;;;;;;20.58;75.85;99238.53;2202703;40;20297;-77
2021/07/25 05:47:35;;;;;;;8.23;4.88;;;;;;;20.59;75.89;99236.69;2183804;40;20063;-77
2021/07/25 05:49:06;;;;;;;7.03;4.97;;;;;;;20.60;75.94;99246.44;2181983;40;20087;-75
2021/07/25 05:50:38;;;;;;;6.90;4.43;;;;;;;20.62;75.80;99247.06;2184378;40;20044;-76
2021/07/25 05:52:10;;;;;;;8.57;5.22;;;;;;;20.64;75.62;99244.13;2185344;40;20125;-76
2021/07/25 05:53:42;;;;;;;7.53;4.60;;;;;;;20.65;75.49;99246.59;2182482;40;20056;-76
2021/07/25 05:55:14;;;;;;;8.80;5.20;;;;;;;20.65;75.65;99252.03;2186347;40;20139;-77
2021/07/25 05:56:46;;;;;;;7.35;4.95;;;;;;;20.65;75.48;99251.19;2183465;40;20080;-77
2021/07/25 05:58:19;;;;;;;9.70;4.65;;;;;;;20.59;75.81;99247.53;2183590;40;20056;-75
2021/07/25 05:59:50;;;;;;;8.45;4.45;;;;;;;20.57;75.61;99249.66;2182902;40;20051;-76
2021/07/25 06:01:21;;;;;;;7.68;5.10;;;;;;;20.55;75.88;99241.72;2183182;40;20056;-75
2021/07/25 06:02:53;;;;;;;6.63;4.30;;;;;;;20.50;76.06;99248.91;2183727;40;20040;-75
2021/07/25 06:04:25;;;;;;;9.80;4.43;;;;;;;20.51;76.07;99251.38;2182264;40;20103;-76
2021/07/25 06:05:57;;;;;;;11.38;5.28;;;;;;;20.50;76.22;99257.06;2184390;40;20329;-75
2021/07/25 06:07:29;;;;;;;11.15;5.32;;;;;;;20.41;76.51;99249.22;2182333;40;20040;-75
2021/07/25 06:09:03;;;;;;;8.35;5.28;;;;;;;20.37;76.65;99250.75;2183615;40;20036;-75
2021/07/25 06:10:35;;;;;;;7.55;4.70;;;;;;;20.34;76.62;99255.78;2187016;40;20153;-75
2021/07/25 06:12:08;;;;;;;7.25;4.93;;;;;;;20.36;76.85;99259.94;2185547;40;20059;-76
2021/07/25 06:13:41;;;;;;;7.60;4.75;;;;;;;20.36;76.94;99259.94;2174048;41;20044;-76
2021/07/25 06:15:12;;;;;;;9.95;5.70;;;;;;;20.37;76.93;99267.03;2187652;40;20406;-76
2021/07/25 06:16:44;;;;;;;6.95;4.85;;;;;;;20.40;76.72;99261.13;2184230;40;20491;-75
2021/07/25 06:18:15;;;;;;;7.15;4.80;;;;;;;20.43;76.66;99262.56;2182758;40;20348;-75
2021/07/25 06:19:47;;;;;;;8.55;5.10;;;;;;;20.54;76.53;99258.25;2185416;40;20040;-76
2021/07/25 06:21:19;;;;;;;9.43;4.85;;;;;;;20.61;76.32;99261.69;2183741;40;20032;-76
2021/07/25 06:22:53;;;;;;;7.05;4.80;;;;;;;20.63;76.31;99253.34;2184924;40;20099;-78
2021/07/25 06:24:24;;;;;;;9.02;4.32;;;;;;;20.70;76.08;99259.50;2183481;40;20039;-78
2021/07/25 06:25:56;;;;;;;8.52;4.70;;;;;;;20.71;75.96;99267.41;2187540;40;20298;-76
2021/07/25 06:27:27;;;;;;;8.25;5.28;;;;;;;20.70;75.83;99259.50;2184905;40;20051;-76
2021/07/25 06:29:00;;;;;;;10.63;5.00;;;;;;;20.68;76.06;99262.44;2188151;40;20367;-76
2021/07/25 06:30:33;;;;;;;9.05;5.45;;;;;;;20.66;75.83;99261.84;2186213;40;20311;-77
2021/07/25 06:32:06;;;;;;;8.35;5.05;;;;;;;20.68;76.13;99253.44;2188942;40;20430;-76
2021/07/25 06:33:38;;;;;;;5.97;4.10;;;;;;;20.75;75.70;99256.09;2187249;40;20040;-77
2021/07/25 06:35:12;;;;;;;8.27;5.30;;;;;;;20.82;75.40;99248.69;2183268;40;20416;-76
2021/07/25 06:36:44;;;;;;;9.10;5.25;;;;;;;20.83;75.37;99247.63;2184573;40;20035;-76
2021/07/25 06:38:17;;;;;;;8.10;4.65;;;;;;;20.86;75.30;99242.56;2183611;40;20035;-75
2021/07/25 06:39:48;;;;;;;7.07;4.47;;;;;;;20.91;75.06;99241.06;2188686;40;20485;-76
2021/07/25 06:41:20;;;;;;;8.73;5.22;;;;;;;20.92;74.85;99240.81;2183808;40;20052;-76
2021/07/25 06:42:52;;;;;;;8.50;5.38;;;;;;;20.87;74.85;99254.28;2188226;40;20031;-76
2021/07/25 06:44:25;;;;;;;10.20;4.45;;;;;;;20.84;74.81;99254.72;2185598;40;20541;-76
2021/07/25 06:45:56;;;;;;;8.57;5.43;;;;;;;20.84;75.20;99255.53;2189006;40;20067;-76
2021/07/25 06:47:29;;;;;;;8.50;4.70;;;;;;;20.86;75.09;99248.00;2186128;40;20070;-76
2021/07/25 06:49:00;;;;;;;6.60;4.30;;;;;;;20.91;75.19;99244.59;2195477;40;20434;-78
2021/07/25 06:50:32;;;;;;;6.82;4.35;;;;;;;20.98;74.99;99248.00;2196482;40;20053;-77
2021/07/25 06:52:05;;;;;;;11.80;6.03;;;;;;;21.01;74.83;99253.00;2200428;40;20089;-76
2021/07/25 06:53:37;;;;;;;9.18;4.63;;;;;;;20.98;74.82;99249.91;2191172;40;20054;-75
2021/07/25 06:55:08;;;;;;;8.45;4.45;;;;;;;20.97;74.97;99257.22;2197357;40;20047;-76
2021/07/25 06:56:40;;;;;;;7.45;5.13;;;;;;;20.95;74.88;99247.66;2195016;40;20176;-76
2021/07/25 06:58:13;;;;;;;7.43;5.20;;;;;;;20.89;75.17;99252.13;2195708;40;20046;-76
2021/07/25 06:59:45;;;;;;;6.18;4.75;;;;;;;20.93;74.80;99250.63;2201361;40;20038;-76
2021/07/25 07:01:17;;;;;;;7.50;5.45;;;;;;;20.96;74.56;99250.16;2200278;40;20039;-76
2021/07/25 07:02:50;;;;;;;8.30;6.22;;;;;;;20.97;74.43;99254.50;2198699;40;20439;-75
2021/07/25 07:04:21;;;;;;;9.20;5.93;;;;;;;20.94;74.67;99249.56;2200497;40;20101;-75
2021/07/25 07:05:52;;;;;;;6.75;4.88;;;;;;;20.98;74.77;99248.00;2195282;40;20356;-76
2021/07/25 07:07:24;;;;;;;11.35;6.00;;;;;;;20.96;74.51;99250.16;2195371;40;20043;-75
2021/07/25 07:08:56;;;;;;;7.63;5.30;;;;;;;20.94;74.80;99235.97;2196712;40;20065;-76
2021/07/25 07:10:29;;;;;;;7.82;5.07;;;;;;;20.99;74.89;99246.97;2197752;40;20065;-75
2021/07/25 07:12:00;;;;;;;8.75;5.55;;;;;;;21.03;74.90;99244.59;2197476;40;20035;-76
2021/07/25 07:13:32;;;;;;;10.52;5.50;;;;;;;21.04;74.68;99236.25;2197235;40;20075;-76
2021/07/25 07:15:07;;;;;;;8.13;5.32;;;;;;;21.12;74.81;99236.94;2196400;40;20061;-77